sensor_id;sensor_type;location;lat;lon;timestamp;P1;durP1;ratioP1;P2;durP2;ratioP2
66139;SDS011;52945;51.908;8.364;2023-07-28T00:03:03;7.53;;;4.40;;
66139;SDS011;52945;51.908;8.364;2023-07-28T00:09:04;8.50;;;4.85;;
66139;SDS011;52945;51.908;8.364;2023-07-28T00:12:04;12.52;;;5.63;;
66139;SDS011;52945;51.908;8.364;2023-07-28T00:18:05;9.65;;;4.65;;
66139;SDS011;52945;51.908;8.364;2023-07-28T00:24:07;9.48;;;5.03;;
66139;SDS011;52945;51.908;8.364;2023-07-28T00:30:08;10.50;;;4.90;;
66139;SDS011;52945;51.908;8.364;2023-07-28T00:33:10;11.20;;;5.50;;
66139;SDS011;52945;51.908;8.364;2023-07-28T00:36:10;9.48;;;4.65;;
66139;SDS011;52945;51.908;8.364;2023-07-28T00:42:11;9.90;;;4.93;;
66139;SDS011;52945;51.908;8.364;2023-07-28T00:48:13;10.45;;;5.13;;
66139;SDS011;52945;51.908;8.364;2023-07-28T00:51:15;11.05;;;4.65;;
66139;SDS011;52945;51.908;8.364;2023-07-28T00:54:17;8.15;;;4.28;;
66139;SDS011;52945;51.908;8.364;2023-07-28T00:57:18;10.65;;;4.78;;
66139;SDS011;52945;51.908;8.364;2023-07-28T01:00:19;9.85;;;4.60;;
66139;SDS011;52945;51.908;8.364;2023-07-28T01:06:26;8.15;;;3.65;;
66139;SDS011;52945;51.908;8.364;2023-07-28T01:09:52;8.18;;;3.63;;
66139;SDS011;52945;51.908;8.364;2023-07-28T01:13:08;7.47;;;3.50;;
66139;SDS011;52945;51.908;8.364;2023-07-28T01:19:09;6.22;;;2.90;;
66139;SDS011;52945;51.908;8.364;2023-07-28T01:22:25;6.72;;;3.70;;
66139;SDS011;52945;51.908;8.364;2023-07-28T01:25:54;7.88;;;3.15;;
66139;SDS011;52945;51.908;8.364;2023-07-28T01:29:05;6.60;;;3.33;;
66139;SDS011;52945;51.908;8.364;2023-07-28T01:32:06;5.35;;;2.80;;
66139;SDS011;52945;51.908;8.364;2023-07-28T01:38:08;4.13;;;2.33;;
66139;SDS011;52945;51.908;8.364;2023-07-28T01:41:08;4.90;;;2.40;;
66139;SDS011;52945;51.908;8.364;2023-07-28T01:44:09;5.13;;;2.60;;
66139;SDS011;52945;51.908;8.364;2023-07-28T01:47:10;4.28;;;2.60;;
66139;SDS011;52945;51.908;8.364;2023-07-28T01:53:11;5.32;;;2.50;;
66139;SDS011;52945;51.908;8.364;2023-07-28T01:59:12;4.78;;;2.60;;
66139;SDS011;52945;51.908;8.364;2023-07-28T02:02:14;4.22;;;2.55;;
66139;SDS011;52945;51.908;8.364;2023-07-28T02:08:15;4.30;;;2.45;;
66139;SDS011;52945;51.908;8.364;2023-07-28T02:14:16;7.25;;;3.30;;
66139;SDS011;52945;51.908;8.364;2023-07-28T02:17:16;6.72;;;3.00;;
66139;SDS011;52945;51.908;8.364;2023-07-28T02:23:17;7.00;;;3.05;;
66139;SDS011;52945;51.908;8.364;2023-07-28T02:26:18;5.43;;;2.95;;
66139;SDS011;52945;51.908;8.364;2023-07-28T02:32:19;5.93;;;2.97;;
66139;SDS011;52945;51.908;8.364;2023-07-28T02:35:20;6.72;;;3.35;;
66139;SDS011;52945;51.908;8.364;2023-07-28T02:41:21;6.32;;;3.35;;
66139;SDS011;52945;51.908;8.364;2023-07-28T02:44:21;8.20;;;3.40;;
66139;SDS011;52945;51.908;8.364;2023-07-28T02:50:22;7.70;;;3.78;;
66139;SDS011;52945;51.908;8.364;2023-07-28T02:56:24;5.90;;;3.45;;
66139;SDS011;52945;51.908;8.364;2023-07-28T03:02:25;6.68;;;3.85;;
66139;SDS011;52945;51.908;8.364;2023-07-28T03:08:26;7.32;;;3.72;;
66139;SDS011;52945;51.908;8.364;2023-07-28T03:14:27;11.38;;;4.68;;
66139;SDS011;52945;51.908;8.364;2023-07-28T03:17:28;10.13;;;4.75;;
66139;SDS011;52945;51.908;8.364;2023-07-28T03:20:30;8.30;;;4.18;;
66139;SDS011;52945;51.908;8.364;2023-07-28T03:26:31;8.80;;;4.50;;
66139;SDS011;52945;51.908;8.364;2023-07-28T03:32:32;9.35;;;4.78;;
66139;SDS011;52945;51.908;8.364;2023-07-28T03:38:33;9.10;;;4.93;;
66139;SDS011;52945;51.908;8.364;2023-07-28T03:41:35;11.23;;;4.95;;
66139;SDS011;52945;51.908;8.364;2023-07-28T03:47:37;10.02;;;5.38;;
66139;SDS011;52945;51.908;8.364;2023-07-28T03:50:39;10.20;;;5.03;;
66139;SDS011;52945;51.908;8.364;2023-07-28T03:56:40;9.60;;;4.68;;
66139;SDS011;52945;51.908;8.364;2023-07-28T04:02:41;8.52;;;4.32;;
66139;SDS011;52945;51.908;8.364;2023-07-28T04:08:42;9.13;;;4.47;;
66139;SDS011;52945;51.908;8.364;2023-07-28T04:11:43;8.55;;;4.53;;
66139;SDS011;52945;51.908;8.364;2023-07-28T04:17:44;8.48;;;4.63;;
66139;SDS011;52945;51.908;8.364;2023-07-28T04:23:46;8.20;;;3.92;;
66139;SDS011;52945;51.908;8.364;2023-07-28T04:29:49;7.88;;;4.00;;
66139;SDS011;52945;51.908;8.364;2023-07-28T04:35:50;9.02;;;4.90;;
66139;SDS011;52945;51.908;8.364;2023-07-28T04:41:51;10.65;;;4.80;;
66139;SDS011;52945;51.908;8.364;2023-07-28T04:47:52;9.15;;;4.88;;
66139;SDS011;52945;51.908;8.364;2023-07-28T04:53:53;10.82;;;4.57;;
66139;SDS011;52945;51.908;8.364;2023-07-28T04:59:54;8.38;;;4.18;;
66139;SDS011;52945;51.908;8.364;2023-07-28T05:05:55;9.27;;;4.38;;
66139;SDS011;52945;51.908;8.364;2023-07-28T05:08:57;9.55;;;4.68;;
66139;SDS011;52945;51.908;8.364;2023-07-28T05:14:58;9.35;;;4.55;;
66139;SDS011;52945;51.908;8.364;2023-07-28T05:17:58;10.15;;;4.72;;
66139;SDS011;52945;51.908;8.364;2023-07-28T05:23:59;9.63;;;4.82;;
66139;SDS011;52945;51.908;8.364;2023-07-28T05:30:00;10.25;;;4.95;;
66139;SDS011;52945;51.908;8.364;2023-07-28T05:36:02;9.30;;;4.93;;
66139;SDS011;52945;51.908;8.364;2023-07-28T05:39:03;9.63;;;5.07;;
66139;SDS011;52945;51.908;8.364;2023-07-28T05:45:04;11.02;;;5.07;;
66139;SDS011;52945;51.908;8.364;2023-07-28T05:48:05;10.23;;;5.07;;
66139;SDS011;52945;51.908;8.364;2023-07-28T05:54:07;9.57;;;4.30;;
66139;SDS011;52945;51.908;8.364;2023-07-28T06:00:08;10.95;;;4.82;;
66139;SDS011;52945;51.908;8.364;2023-07-28T06:03:10;9.85;;;4.95;;
66139;SDS011;52945;51.908;8.364;2023-07-28T06:06:12;11.05;;;5.55;;
66139;SDS011;52945;51.908;8.364;2023-07-28T06:12:13;11.32;;;5.78;;
66139;SDS011;52945;51.908;8.364;2023-07-28T06:15:16;10.45;;;5.45;;
66139;SDS011;52945;51.908;8.364;2023-07-28T06:21:17;14.93;;;6.40;;
66139;SDS011;52945;51.908;8.364;2023-07-28T06:27:18;12.40;;;6.03;;
66139;SDS011;52945;51.908;8.364;2023-07-28T06:33:20;11.18;;;5.78;;
66139;SDS011;52945;51.908;8.364;2023-07-28T06:39:21;10.98;;;5.85;;
66139;SDS011;52945;51.908;8.364;2023-07-28T06:45:24;11.32;;;5.80;;
66139;SDS011;52945;51.908;8.364;2023-07-28T06:51:25;13.23;;;6.07;;
66139;SDS011;52945;51.908;8.364;2023-07-28T06:54:25;10.77;;;5.40;;
66139;SDS011;52945;51.908;8.364;2023-07-28T07:00:26;12.25;;;6.45;;
66139;SDS011;52945;51.908;8.364;2023-07-28T07:03:27;11.82;;;6.43;;
66139;SDS011;52945;51.908;8.364;2023-07-28T07:09:28;12.85;;;7.00;;
66139;SDS011;52945;51.908;8.364;2023-07-28T07:15:29;11.65;;;6.03;;
66139;SDS011;52945;51.908;8.364;2023-07-28T07:18:30;13.10;;;6.25;;
66139;SDS011;52945;51.908;8.364;2023-07-28T07:21:30;12.55;;;6.53;;
66139;SDS011;52945;51.908;8.364;2023-07-28T07:24:32;11.95;;;6.18;;
66139;SDS011;52945;51.908;8.364;2023-07-28T07:30:33;11.60;;;5.97;;
66139;SDS011;52945;51.908;8.364;2023-07-28T07:36:34;11.13;;;5.65;;
66139;SDS011;52945;51.908;8.364;2023-07-28T07:39:35;13.30;;;6.43;;
66139;SDS011;52945;51.908;8.364;2023-07-28T07:42:43;14.90;;;7.35;;
66139;SDS011;52945;51.908;8.364;2023-07-28T07:45:46;14.30;;;7.05;;
66139;SDS011;52945;51.908;8.364;2023-07-28T07:48:47;12.93;;;6.43;;
66139;SDS011;52945;51.908;8.364;2023-07-28T07:51:48;13.48;;;6.30;;
66139;SDS011;52945;51.908;8.364;2023-07-28T07:54:49;11.55;;;6.30;;
66139;SDS011;52945;51.908;8.364;2023-07-28T08:00:50;13.75;;;6.85;;
66139;SDS011;52945;51.908;8.364;2023-07-28T08:03:50;11.38;;;5.78;;
66139;SDS011;52945;51.908;8.364;2023-07-28T08:09:51;10.13;;;5.47;;
66139;SDS011;52945;51.908;8.364;2023-07-28T08:12:52;11.55;;;5.88;;
66139;SDS011;52945;51.908;8.364;2023-07-28T08:15:53;11.38;;;5.95;;
66139;SDS011;52945;51.908;8.364;2023-07-28T08:18:54;8.40;;;4.72;;
66139;SDS011;52945;51.908;8.364;2023-07-28T08:21:54;7.90;;;4.53;;
66139;SDS011;52945;51.908;8.364;2023-07-28T08:24:55;9.20;;;4.78;;
66139;SDS011;52945;51.908;8.364;2023-07-28T08:27:56;11.38;;;5.63;;
66139;SDS011;52945;51.908;8.364;2023-07-28T08:33:57;9.10;;;5.25;;
66139;SDS011;52945;51.908;8.364;2023-07-28T08:36:58;12.38;;;5.38;;
66139;SDS011;52945;51.908;8.364;2023-07-28T08:39:59;10.10;;;5.50;;
66139;SDS011;52945;51.908;8.364;2023-07-28T08:42:59;9.50;;;5.20;;
66139;SDS011;52945;51.908;8.364;2023-07-28T08:46:00;9.55;;;4.90;;
66139;SDS011;52945;51.908;8.364;2023-07-28T08:49:01;8.32;;;4.25;;
66139;SDS011;52945;51.908;8.364;2023-07-28T08:52:02;7.75;;;3.97;;
66139;SDS011;52945;51.908;8.364;2023-07-28T08:55:04;7.50;;;3.58;;
66139;SDS011;52945;51.908;8.364;2023-07-28T08:58:19;8.70;;;4.22;;
66139;SDS011;52945;51.908;8.364;2023-07-28T09:01:22;9.20;;;5.05;;
66139;SDS011;52945;51.908;8.364;2023-07-28T09:04:23;8.77;;;4.95;;
66139;SDS011;52945;51.908;8.364;2023-07-28T09:07:24;7.85;;;4.57;;
66139;SDS011;52945;51.908;8.364;2023-07-28T09:10:24;7.70;;;4.85;;
66139;SDS011;52945;51.908;8.364;2023-07-28T09:13:25;7.90;;;4.43;;
66139;SDS011;52945;51.908;8.364;2023-07-28T09:16:41;8.30;;;4.20;;
66139;SDS011;52945;51.908;8.364;2023-07-28T09:19:51;8.13;;;4.35;;
66139;SDS011;52945;51.908;8.364;2023-07-28T09:22:53;7.32;;;4.35;;
66139;SDS011;52945;51.908;8.364;2023-07-28T09:25:58;7.53;;;4.35;;
66139;SDS011;52945;51.908;8.364;2023-07-28T09:29:01;8.02;;;4.45;;
66139;SDS011;52945;51.908;8.364;2023-07-28T09:32:09;9.07;;;5.15;;
66139;SDS011;52945;51.908;8.364;2023-07-28T09:38:12;6.75;;;4.10;;
66139;SDS011;52945;51.908;8.364;2023-07-28T09:41:15;7.57;;;4.05;;
66139;SDS011;52945;51.908;8.364;2023-07-28T09:47:16;5.25;;;2.97;;
66139;SDS011;52945;51.908;8.364;2023-07-28T09:50:18;4.85;;;3.08;;
66139;SDS011;52945;51.908;8.364;2023-07-28T09:53:20;5.65;;;3.15;;
66139;SDS011;52945;51.908;8.364;2023-07-28T09:56:26;4.72;;;2.90;;
66139;SDS011;52945;51.908;8.364;2023-07-28T09:59:32;7.35;;;4.20;;
66139;SDS011;52945;51.908;8.364;2023-07-28T10:02:38;5.22;;;3.58;;
66139;SDS011;52945;51.908;8.364;2023-07-28T10:05:39;6.40;;;3.70;;
66139;SDS011;52945;51.908;8.364;2023-07-28T10:08:40;6.53;;;3.78;;
66139;SDS011;52945;51.908;8.364;2023-07-28T10:11:43;8.00;;;4.00;;
66139;SDS011;52945;51.908;8.364;2023-07-28T10:14:44;6.32;;;3.80;;
66139;SDS011;52945;51.908;8.364;2023-07-28T10:17:47;7.35;;;3.65;;
66139;SDS011;52945;51.908;8.364;2023-07-28T10:20:52;6.25;;;3.33;;
66139;SDS011;52945;51.908;8.364;2023-07-28T10:23:56;5.43;;;3.60;;
66139;SDS011;52945;51.908;8.364;2023-07-28T10:26:58;7.40;;;4.13;;
66139;SDS011;52945;51.908;8.364;2023-07-28T10:29:59;12.13;;;5.32;;
66139;SDS011;52945;51.908;8.364;2023-07-28T10:33:01;11.85;;;6.40;;
66139;SDS011;52945;51.908;8.364;2023-07-28T10:36:10;12.85;;;7.03;;
66139;SDS011;52945;51.908;8.364;2023-07-28T10:39:15;14.82;;;6.85;;
66139;SDS011;52945;51.908;8.364;2023-07-28T10:42:17;15.65;;;7.72;;
66139;SDS011;52945;51.908;8.364;2023-07-28T10:45:20;19.48;;;8.98;;
66139;SDS011;52945;51.908;8.364;2023-07-28T10:48:22;19.85;;;9.68;;
66139;SDS011;52945;51.908;8.364;2023-07-28T10:51:24;25.90;;;10.68;;
66139;SDS011;52945;51.908;8.364;2023-07-28T10:54:29;20.90;;;9.95;;
66139;SDS011;52945;51.908;8.364;2023-07-28T10:57:31;22.92;;;10.07;;
66139;SDS011;52945;51.908;8.364;2023-07-28T11:00:32;24.67;;;10.82;;
66139;SDS011;52945;51.908;8.364;2023-07-28T11:03:32;25.25;;;10.82;;
66139;SDS011;52945;51.908;8.364;2023-07-28T11:06:33;22.02;;;10.88;;
66139;SDS011;52945;51.908;8.364;2023-07-28T11:09:34;22.13;;;10.77;;
66139;SDS011;52945;51.908;8.364;2023-07-28T11:12:34;23.63;;;10.88;;
66139;SDS011;52945;51.908;8.364;2023-07-28T11:15:35;21.42;;;10.45;;
66139;SDS011;52945;51.908;8.364;2023-07-28T11:18:36;17.98;;;9.35;;
66139;SDS011;52945;51.908;8.364;2023-07-28T11:21:37;21.13;;;9.77;;
66139;SDS011;52945;51.908;8.364;2023-07-28T11:24:41;19.40;;;9.40;;
66139;SDS011;52945;51.908;8.364;2023-07-28T11:27:42;17.45;;;9.30;;
66139;SDS011;52945;51.908;8.364;2023-07-28T11:30:46;19.42;;;9.65;;
66139;SDS011;52945;51.908;8.364;2023-07-28T11:33:47;18.17;;;9.90;;
66139;SDS011;52945;51.908;8.364;2023-07-28T11:36:48;17.40;;;9.10;;
66139;SDS011;52945;51.908;8.364;2023-07-28T11:39:49;16.35;;;8.60;;
66139;SDS011;52945;51.908;8.364;2023-07-28T11:42:50;15.38;;;8.45;;
66139;SDS011;52945;51.908;8.364;2023-07-28T11:45:53;16.20;;;9.02;;
66139;SDS011;52945;51.908;8.364;2023-07-28T11:48:54;14.07;;;8.13;;
66139;SDS011;52945;51.908;8.364;2023-07-28T11:52:16;13.00;;;7.47;;
66139;SDS011;52945;51.908;8.364;2023-07-28T11:55:17;14.20;;;7.90;;
66139;SDS011;52945;51.908;8.364;2023-07-28T11:58:19;12.55;;;7.70;;
66139;SDS011;52945;51.908;8.364;2023-07-28T12:01:20;13.77;;;7.07;;
66139;SDS011;52945;51.908;8.364;2023-07-28T12:04:24;14.10;;;7.97;;
66139;SDS011;52945;51.908;8.364;2023-07-28T12:10:30;11.80;;;6.55;;
66139;SDS011;52945;51.908;8.364;2023-07-28T12:13:31;16.25;;;7.65;;
66139;SDS011;52945;51.908;8.364;2023-07-28T12:16:41;13.55;;;7.13;;
66139;SDS011;52945;51.908;8.364;2023-07-28T12:20:06;11.50;;;6.40;;
66139;SDS011;52945;51.908;8.364;2023-07-28T12:23:10;8.30;;;4.82;;
66139;SDS011;52945;51.908;8.364;2023-07-28T12:26:11;8.18;;;4.70;;
66139;SDS011;52945;51.908;8.364;2023-07-28T12:29:12;6.00;;;3.72;;
66139;SDS011;52945;51.908;8.364;2023-07-28T12:32:12;8.07;;;4.07;;
66139;SDS011;52945;51.908;8.364;2023-07-28T12:35:13;6.68;;;3.83;;
66139;SDS011;52945;51.908;8.364;2023-07-28T12:38:14;7.63;;;3.63;;
66139;SDS011;52945;51.908;8.364;2023-07-28T12:41:14;5.53;;;3.17;;
66139;SDS011;52945;51.908;8.364;2023-07-28T12:44:18;6.70;;;3.35;;
66139;SDS011;52945;51.908;8.364;2023-07-28T12:47:20;4.97;;;2.80;;
66139;SDS011;52945;51.908;8.364;2023-07-28T12:50:20;4.97;;;3.05;;
66139;SDS011;52945;51.908;8.364;2023-07-28T12:53:22;5.47;;;3.30;;
66139;SDS011;52945;51.908;8.364;2023-07-28T12:56:22;4.45;;;2.83;;
66139;SDS011;52945;51.908;8.364;2023-07-28T12:59:23;5.72;;;3.20;;
66139;SDS011;52945;51.908;8.364;2023-07-28T13:02:23;6.82;;;2.72;;
66139;SDS011;52945;51.908;8.364;2023-07-28T13:05:24;6.53;;;3.13;;
66139;SDS011;52945;51.908;8.364;2023-07-28T13:08:24;5.93;;;3.40;;
66139;SDS011;52945;51.908;8.364;2023-07-28T13:11:25;4.57;;;2.92;;
66139;SDS011;52945;51.908;8.364;2023-07-28T13:14:26;6.00;;;3.60;;
66139;SDS011;52945;51.908;8.364;2023-07-28T13:17:26;5.18;;;3.67;;
66139;SDS011;52945;51.908;8.364;2023-07-28T13:20:27;7.55;;;4.40;;
66139;SDS011;52945;51.908;8.364;2023-07-28T13:23:28;9.18;;;4.50;;
66139;SDS011;52945;51.908;8.364;2023-07-28T13:26:29;4.90;;;3.90;;
66139;SDS011;52945;51.908;8.364;2023-07-28T13:29:30;5.60;;;3.72;;
66139;SDS011;52945;51.908;8.364;2023-07-28T13:32:31;5.40;;;3.78;;
66139;SDS011;52945;51.908;8.364;2023-07-28T13:35:32;10.00;;;3.85;;
66139;SDS011;52945;51.908;8.364;2023-07-28T13:38:32;5.40;;;3.75;;
66139;SDS011;52945;51.908;8.364;2023-07-28T13:41:33;5.35;;;3.80;;
66139;SDS011;52945;51.908;8.364;2023-07-28T13:44:34;6.13;;;3.97;;
66139;SDS011;52945;51.908;8.364;2023-07-28T13:47:35;5.15;;;3.45;;
66139;SDS011;52945;51.908;8.364;2023-07-28T13:50:35;8.80;;;4.13;;
66139;SDS011;52945;51.908;8.364;2023-07-28T13:53:36;6.65;;;4.10;;
66139;SDS011;52945;51.908;8.364;2023-07-28T13:56:37;4.90;;;3.50;;
66139;SDS011;52945;51.908;8.364;2023-07-28T13:59:37;5.10;;;3.70;;
66139;SDS011;52945;51.908;8.364;2023-07-28T14:02:38;4.38;;;3.20;;
66139;SDS011;52945;51.908;8.364;2023-07-28T14:05:40;4.68;;;3.25;;
66139;SDS011;52945;51.908;8.364;2023-07-28T14:08:41;3.80;;;2.92;;
66139;SDS011;52945;51.908;8.364;2023-07-28T14:11:41;4.85;;;3.40;;
66139;SDS011;52945;51.908;8.364;2023-07-28T14:14:42;6.10;;;3.75;;
66139;SDS011;52945;51.908;8.364;2023-07-28T14:17:42;4.13;;;3.03;;
66139;SDS011;52945;51.908;8.364;2023-07-28T14:20:43;4.78;;;3.25;;
66139;SDS011;52945;51.908;8.364;2023-07-28T14:23:43;4.60;;;3.35;;
66139;SDS011;52945;51.908;8.364;2023-07-28T14:26:44;4.88;;;3.67;;
66139;SDS011;52945;51.908;8.364;2023-07-28T14:29:44;5.45;;;3.40;;
66139;SDS011;52945;51.908;8.364;2023-07-28T14:32:45;4.18;;;3.25;;
66139;SDS011;52945;51.908;8.364;2023-07-28T14:35:47;5.30;;;3.45;;
66139;SDS011;52945;51.908;8.364;2023-07-28T14:38:48;4.70;;;3.33;;
66139;SDS011;52945;51.908;8.364;2023-07-28T14:41:49;5.63;;;3.63;;
66139;SDS011;52945;51.908;8.364;2023-07-28T14:44:49;4.25;;;3.38;;
66139;SDS011;52945;51.908;8.364;2023-07-28T14:47:50;3.83;;;2.85;;
66139;SDS011;52945;51.908;8.364;2023-07-28T14:50:51;3.83;;;2.60;;
66139;SDS011;52945;51.908;8.364;2023-07-28T14:53:51;3.70;;;2.63;;
66139;SDS011;52945;51.908;8.364;2023-07-28T14:56:52;3.80;;;2.58;;
66139;SDS011;52945;51.908;8.364;2023-07-28T14:59:52;2.95;;;2.45;;
66139;SDS011;52945;51.908;8.364;2023-07-28T15:02:53;3.47;;;2.58;;
66139;SDS011;52945;51.908;8.364;2023-07-28T15:05:54;4.00;;;2.65;;
66139;SDS011;52945;51.908;8.364;2023-07-28T15:08:57;2.53;;;2.05;;
66139;SDS011;52945;51.908;8.364;2023-07-28T15:11:58;3.63;;;2.40;;
66139;SDS011;52945;51.908;8.364;2023-07-28T15:14:59;2.72;;;2.22;;
66139;SDS011;52945;51.908;8.364;2023-07-28T15:17:59;3.80;;;2.35;;
66139;SDS011;52945;51.908;8.364;2023-07-28T15:21:00;3.35;;;2.25;;
66139;SDS011;52945;51.908;8.364;2023-07-28T15:24:02;2.72;;;2.13;;
66139;SDS011;52945;51.908;8.364;2023-07-28T15:27:03;4.53;;;2.38;;
66139;SDS011;52945;51.908;8.364;2023-07-28T15:30:04;3.47;;;2.47;;
66139;SDS011;52945;51.908;8.364;2023-07-28T15:33:05;3.95;;;2.50;;
66139;SDS011;52945;51.908;8.364;2023-07-28T15:36:06;4.40;;;2.40;;
66139;SDS011;52945;51.908;8.364;2023-07-28T15:39:06;3.33;;;2.40;;
66139;SDS011;52945;51.908;8.364;2023-07-28T15:42:07;3.13;;;2.28;;
66139;SDS011;52945;51.908;8.364;2023-07-28T15:45:07;4.50;;;2.22;;
66139;SDS011;52945;51.908;8.364;2023-07-28T15:48:08;3.28;;;2.40;;
66139;SDS011;52945;51.908;8.364;2023-07-28T15:51:09;4.30;;;2.08;;
66139;SDS011;52945;51.908;8.364;2023-07-28T15:54:09;2.15;;;1.90;;
66139;SDS011;52945;51.908;8.364;2023-07-28T15:57:10;3.53;;;1.80;;
66139;SDS011;52945;51.908;8.364;2023-07-28T16:00:11;2.00;;;1.80;;
66139;SDS011;52945;51.908;8.364;2023-07-28T16:03:14;2.83;;;2.10;;
66139;SDS011;52945;51.908;8.364;2023-07-28T16:06:14;2.40;;;1.90;;
66139;SDS011;52945;51.908;8.364;2023-07-28T16:09:15;3.00;;;2.10;;
66139;SDS011;52945;51.908;8.364;2023-07-28T16:12:16;1.90;;;1.70;;
66139;SDS011;52945;51.908;8.364;2023-07-28T16:15:17;2.13;;;1.90;;
66139;SDS011;52945;51.908;8.364;2023-07-28T16:18:17;2.00;;;1.80;;
66139;SDS011;52945;51.908;8.364;2023-07-28T16:21:18;2.50;;;1.73;;
66139;SDS011;52945;51.908;8.364;2023-07-28T16:24:19;2.33;;;1.80;;
66139;SDS011;52945;51.908;8.364;2023-07-28T16:27:20;1.90;;;1.70;;
66139;SDS011;52945;51.908;8.364;2023-07-28T16:30:20;2.10;;;1.75;;
66139;SDS011;52945;51.908;8.364;2023-07-28T16:33:21;2.38;;;1.77;;
66139;SDS011;52945;51.908;8.364;2023-07-28T16:36:21;2.72;;;1.65;;
66139;SDS011;52945;51.908;8.364;2023-07-28T16:39:22;1.50;;;1.40;;
66139;SDS011;52945;51.908;8.364;2023-07-28T16:42:23;1.90;;;1.60;;
66139;SDS011;52945;51.908;8.364;2023-07-28T16:45:23;2.63;;;1.88;;
66139;SDS011;52945;51.908;8.364;2023-07-28T16:48:24;1.83;;;1.50;;
66139;SDS011;52945;51.908;8.364;2023-07-28T16:51:24;1.83;;;1.60;;
66139;SDS011;52945;51.908;8.364;2023-07-28T16:54:25;2.28;;;1.30;;
66139;SDS011;52945;51.908;8.364;2023-07-28T16:57:27;1.95;;;1.75;;
66139;SDS011;52945;51.908;8.364;2023-07-28T17:00:28;1.60;;;1.30;;
66139;SDS011;52945;51.908;8.364;2023-07-28T17:03:28;2.13;;;1.50;;
66139;SDS011;52945;51.908;8.364;2023-07-28T17:06:29;1.90;;;1.70;;
66139;SDS011;52945;51.908;8.364;2023-07-28T17:09:29;1.42;;;1.33;;
66139;SDS011;52945;51.908;8.364;2023-07-28T17:12:30;1.40;;;1.30;;
66139;SDS011;52945;51.908;8.364;2023-07-28T17:15:30;1.40;;;1.30;;
66139;SDS011;52945;51.908;8.364;2023-07-28T17:18:31;2.33;;;1.48;;
66139;SDS011;52945;51.908;8.364;2023-07-28T17:21:32;1.73;;;1.50;;
66139;SDS011;52945;51.908;8.364;2023-07-28T17:24:32;2.60;;;1.70;;
66139;SDS011;52945;51.908;8.364;2023-07-28T17:27:33;1.50;;;1.40;;
66139;SDS011;52945;51.908;8.364;2023-07-28T17:30:33;1.50;;;1.33;;
66139;SDS011;52945;51.908;8.364;2023-07-28T17:33:34;1.35;;;1.25;;
66139;SDS011;52945;51.908;8.364;2023-07-28T17:36:34;2.30;;;1.50;;
66139;SDS011;52945;51.908;8.364;2023-07-28T17:39:35;1.65;;;1.48;;
66139;SDS011;52945;51.908;8.364;2023-07-28T17:42:36;2.60;;;1.60;;
66139;SDS011;52945;51.908;8.364;2023-07-28T17:45:36;1.70;;;1.60;;
66139;SDS011;52945;51.908;8.364;2023-07-28T17:48:37;1.52;;;1.40;;
66139;SDS011;52945;51.908;8.364;2023-07-28T17:51:37;1.85;;;1.45;;
66139;SDS011;52945;51.908;8.364;2023-07-28T17:54:38;1.58;;;1.48;;
66139;SDS011;52945;51.908;8.364;2023-07-28T17:57:38;1.95;;;1.20;;
66139;SDS011;52945;51.908;8.364;2023-07-28T18:00:39;1.35;;;1.20;;
66139;SDS011;52945;51.908;8.364;2023-07-28T18:03:39;1.08;;;0.98;;
66139;SDS011;52945;51.908;8.364;2023-07-28T18:06:40;1.35;;;1.15;;
66139;SDS011;52945;51.908;8.364;2023-07-28T18:09:41;1.10;;;1.00;;
66139;SDS011;52945;51.908;8.364;2023-07-28T18:12:41;1.05;;;1.05;;
66139;SDS011;52945;51.908;8.364;2023-07-28T18:15:42;0.90;;;0.90;;
66139;SDS011;52945;51.908;8.364;2023-07-28T18:18:43;0.93;;;0.90;;
66139;SDS011;52945;51.908;8.364;2023-07-28T18:21:43;1.40;;;1.00;;
66139;SDS011;52945;51.908;8.364;2023-07-28T18:24:44;2.35;;;0.90;;
66139;SDS011;52945;51.908;8.364;2023-07-28T18:27:45;1.25;;;0.80;;
66139;SDS011;52945;51.908;8.364;2023-07-28T18:30:45;0.85;;;0.80;;
66139;SDS011;52945;51.908;8.364;2023-07-28T18:33:46;0.80;;;0.80;;
66139;SDS011;52945;51.908;8.364;2023-07-28T18:36:47;0.80;;;0.80;;
66139;SDS011;52945;51.908;8.364;2023-07-28T18:39:52;1.73;;;0.90;;
66139;SDS011;52945;51.908;8.364;2023-07-28T18:42:53;0.60;;;0.60;;
66139;SDS011;52945;51.908;8.364;2023-07-28T18:45:54;0.90;;;0.80;;
66139;SDS011;52945;51.908;8.364;2023-07-28T18:48:54;1.23;;;1.13;;
66139;SDS011;52945;51.908;8.364;2023-07-28T18:51:55;1.02;;;0.93;;
66139;SDS011;52945;51.908;8.364;2023-07-28T18:54:55;0.82;;;0.82;;
66139;SDS011;52945;51.908;8.364;2023-07-28T18:57:56;2.65;;;0.88;;
66139;SDS011;52945;51.908;8.364;2023-07-28T19:00:57;0.85;;;0.80;;
66139;SDS011;52945;51.908;8.364;2023-07-28T19:03:57;1.13;;;0.93;;
66139;SDS011;52945;51.908;8.364;2023-07-28T19:06:58;1.77;;;0.70;;
66139;SDS011;52945;51.908;8.364;2023-07-28T19:09:58;0.77;;;0.77;;
66139;SDS011;52945;51.908;8.364;2023-07-28T19:12:59;1.00;;;0.90;;
66139;SDS011;52945;51.908;8.364;2023-07-28T19:16:00;0.88;;;0.82;;
66139;SDS011;52945;51.908;8.364;2023-07-28T19:19:00;0.70;;;0.70;;
66139;SDS011;52945;51.908;8.364;2023-07-28T19:22:01;1.02;;;0.77;;
66139;SDS011;52945;51.908;8.364;2023-07-28T19:25:02;2.53;;;0.98;;
66139;SDS011;52945;51.908;8.364;2023-07-28T19:28:05;0.95;;;0.73;;
66139;SDS011;52945;51.908;8.364;2023-07-28T19:31:06;1.65;;;0.93;;
66139;SDS011;52945;51.908;8.364;2023-07-28T19:34:07;0.68;;;0.68;;
66139;SDS011;52945;51.908;8.364;2023-07-28T19:37:07;0.63;;;0.55;;
66139;SDS011;52945;51.908;8.364;2023-07-28T19:40:08;0.60;;;0.60;;
66139;SDS011;52945;51.908;8.364;2023-07-28T19:43:09;1.20;;;0.95;;
66139;SDS011;52945;51.908;8.364;2023-07-28T19:46:09;0.57;;;0.57;;
66139;SDS011;52945;51.908;8.364;2023-07-28T19:49:10;0.82;;;0.65;;
66139;SDS011;52945;51.908;8.364;2023-07-28T19:52:14;2.83;;;0.60;;
66139;SDS011;52945;51.908;8.364;2023-07-28T19:55:14;0.80;;;0.75;;
66139;SDS011;52945;51.908;8.364;2023-07-28T19:58:15;2.83;;;0.80;;
66139;SDS011;52945;51.908;8.364;2023-07-28T20:01:15;1.42;;;0.90;;
66139;SDS011;52945;51.908;8.364;2023-07-28T20:04:16;1.58;;;0.80;;
66139;SDS011;52945;51.908;8.364;2023-07-28T20:07:17;0.70;;;0.70;;
66139;SDS011;52945;51.908;8.364;2023-07-28T20:10:17;1.20;;;0.88;;
66139;SDS011;52945;51.908;8.364;2023-07-28T20:13:18;1.08;;;0.90;;
66139;SDS011;52945;51.908;8.364;2023-07-28T20:16:18;1.70;;;0.88;;
66139;SDS011;52945;51.908;8.364;2023-07-28T20:19:19;0.80;;;0.73;;
66139;SDS011;52945;51.908;8.364;2023-07-28T20:22:19;1.02;;;0.70;;
66139;SDS011;52945;51.908;8.364;2023-07-28T20:25:20;0.75;;;0.75;;
66139;SDS011;52945;51.908;8.364;2023-07-28T20:28:21;2.22;;;0.95;;
66139;SDS011;52945;51.908;8.364;2023-07-28T20:31:21;1.27;;;0.70;;
66139;SDS011;52945;51.908;8.364;2023-07-28T20:34:22;1.75;;;0.90;;
66139;SDS011;52945;51.908;8.364;2023-07-28T20:37:23;1.42;;;1.10;;
66139;SDS011;52945;51.908;8.364;2023-07-28T20:40:24;2.33;;;0.90;;
66139;SDS011;52945;51.908;8.364;2023-07-28T20:43:24;1.45;;;0.80;;
66139;SDS011;52945;51.908;8.364;2023-07-28T20:46:25;1.70;;;0.90;;
66139;SDS011;52945;51.908;8.364;2023-07-28T20:49:26;0.70;;;0.70;;
66139;SDS011;52945;51.908;8.364;2023-07-28T20:52:27;1.00;;;0.90;;
66139;SDS011;52945;51.908;8.364;2023-07-28T20:55:27;0.80;;;0.80;;
66139;SDS011;52945;51.908;8.364;2023-07-28T20:58:28;0.90;;;0.88;;
66139;SDS011;52945;51.908;8.364;2023-07-28T21:01:28;0.80;;;0.80;;
66139;SDS011;52945;51.908;8.364;2023-07-28T21:04:29;0.90;;;0.90;;
66139;SDS011;52945;51.908;8.364;2023-07-28T21:07:30;1.05;;;0.90;;
66139;SDS011;52945;51.908;8.364;2023-07-28T21:10:30;1.52;;;0.90;;
66139;SDS011;52945;51.908;8.364;2023-07-28T21:13:33;1.23;;;0.80;;
66139;SDS011;52945;51.908;8.364;2023-07-28T21:16:34;0.80;;;0.75;;